sensor_id;sensor_type;location;lat;lon;timestamp;pressure;altitude;pressure_sealevel;temperature;humidity
60307;BME280;46155;52.364;6.580;2023-03-21T04:01:19;101155.06;;;8.89;100.00
60307;BME280;46155;52.364;6.580;2023-03-21T04:03:46;101156.63;;;8.87;100.00
60307;BME280;46155;52.364;6.580;2023-03-21T04:06:15;101135.25;;;8.81;100.00
60307;BME280;46155;52.364;6.580;2023-03-21T04:08:41;101150.59;;;8.88;100.00
60307;BME280;46155;52.364;6.580;2023-03-21T04:11:07;101143.31;;;8.84;100.00
60307;BME280;46155;52.364;6.580;2023-03-21T04:13:33;101135.47;;;8.84;100.00
60307;BME280;46155;52.364;6.580;2023-03-21T04:15:58;101144.38;;;8.86;100.00
60307;BME280;46155;52.364;6.580;2023-03-21T04:18:24;101127.97;;;8.77;100.00
60307;BME280;46155;52.364;6.580;2023-03-21T04:20:50;101139.00;;;8.85;100.00
60307;BME280;46155;52.364;6.580;2023-03-21T04:23:16;101140.91;;;8.87;100.00
60307;BME280;46155;52.364;6.580;2023-03-21T04:25:43;101132.97;;;8.86;100.00
60307;BME280;46155;52.364;6.580;2023-03-21T04:28:09;101135.69;;;8.87;100.00
60307;BME280;46155;52.364;6.580;2023-03-21T04:30:35;101137.50;;;8.88;100.00
60307;BME280;46155;52.364;6.580;2023-03-21T04:33:00;101140.03;;;8.87;100.00
60307;BME280;46155;52.364;6.580;2023-03-21T04:35:26;101134.91;;;8.88;100.00
60307;BME280;46155;52.364;6.580;2023-03-21T04:37:52;101125.81;;;8.83;100.00
60307;BME280;46155;52.364;6.580;2023-03-21T04:40:18;101132.38;;;8.90;100.00
60307;BME280;46155;52.364;6.580;2023-03-21T04:42:45;101124.31;;;8.87;100.00
60307;BME280;46155;52.364;6.580;2023-03-21T04:45:11;101132.97;;;8.86;100.00
60307;BME280;46155;52.364;6.580;2023-03-21T04:47:37;101130.22;;;8.84;100.00
60307;BME280;46155;52.364;6.580;2023-03-21T04:50:03;101126.03;;;8.86;100.00
60307;BME280;46155;52.364;6.580;2023-03-21T04:52:28;101126.81;;;8.85;100.00
60307;BME280;46155;52.364;6.580;2023-03-21T04:54:53;101125.22;;;8.87;100.00
60307;BME280;46155;52.364;6.580;2023-03-21T04:57:19;101120.22;;;8.90;100.00
60307;BME280;46155;52.364;6.580;2023-03-21T04:59:45;101119.19;;;8.88;100.00
60307;BME280;46155;52.364;6.580;2023-03-21T05:02:10;101127.03;;;8.88;100.00
60307;BME280;46155;52.364;6.580;2023-03-21T05:04:37;101121.81;;;8.88;100.00
60307;BME280;46155;52.364;6.580;2023-03-21T05:07:02;101119.19;;;8.88;100.00
60307;BME280;46155;52.364;6.580;2023-03-21T05:09:28;101128.88;;;8.89;100.00
60307;BME280;46155;52.364;6.580;2023-03-21T05:11:53;101123.53;;;8.88;100.00
60307;BME280;46155;52.364;6.580;2023-03-21T05:14:21;101120.22;;;8.90;100.00
60307;BME280;46155;52.364;6.580;2023-03-21T05:16:48;101122.84;;;8.90;100.00
60307;BME280;46155;52.364;6.580;2023-03-21T05:19:18;101121.81;;;8.88;100.00
60307;BME280;46155;52.364;6.580;2023-03-21T05:21:45;101119.19;;;8.88;100.00
60307;BME280;46155;52.364;6.580;2023-03-21T05:24:14;101115.66;;;8.88;100.00
60307;BME280;46155;52.364;6.580;2023-03-21T05:26:41;101112.13;;;8.87;100.00
60307;BME280;46155;52.364;6.580;2023-03-21T05:29:07;101115.44;;;8.85;100.00
60307;BME280;46155;52.364;6.580;2023-03-21T05:31:33;101117.34;;;8.87;100.00
60307;BME280;46155;52.364;6.580;2023-03-21T05:33:58;101120.13;;;8.89;100.00
60307;BME280;46155;52.364;6.580;2023-03-21T05:36:23;101113.63;;;8.84;100.00
60307;BME280;46155;52.364;6.580;2023-03-21T05:38:49;101120.59;;;8.83;100.00
60307;BME280;46155;52.364;6.580;2023-03-21T05:41:16;101113.63;;;8.84;100.00
60307;BME280;46155;52.364;6.580;2023-03-21T05:43:42;101105.44;;;8.79;100.00
60307;BME280;46155;52.364;6.580;2023-03-21T05:46:08;101117.13;;;8.84;100.00
60307;BME280;46155;52.364;6.580;2023-03-21T05:48:34;101114.53;;;8.84;100.00
60307;BME280;46155;52.364;6.580;2023-03-21T05:51:00;101116.34;;;8.85;100.00
60307;BME280;46155;52.364;6.580;2023-03-21T05:53:26;101124.09;;;8.84;100.00
60307;BME280;46155;52.364;6.580;2023-03-21T05:55:51;101118.19;;;8.86;100.00
60307;BME280;46155;52.364;6.580;2023-03-21T05:58:17;101118.97;;;8.85;100.00
60307;BME280;46155;52.364;6.580;2023-03-21T06:00:42;101116.94;;;8.81;100.00
60307;BME280;46155;52.364;6.580;2023-03-21T06:03:07;101121.13;;;8.91;100.00
60307;BME280;46155;52.364;6.580;2023-03-21T06:05:33;101124.88;;;8.83;100.00
60307;BME280;46155;52.364;6.580;2023-03-21T06:07:58;101120.22;;;8.78;100.00
60307;BME280;46155;52.364;6.580;2023-03-21T06:10:23;101126.38;;;8.79;100.00
60307;BME280;46155;52.364;6.580;2023-03-21T06:12:49;101123.78;;;8.79;100.00
60307;BME280;46155;52.364;6.580;2023-03-21T06:15:14;101128.75;;;8.76;100.00
60307;BME280;46155;52.364;6.580;2023-03-21T06:17:40;101126.13;;;8.76;100.00
60307;BME280;46155;52.364;6.580;2023-03-21T06:20:09;101119.69;;;8.71;100.00
60307;BME280;46155;52.364;6.580;2023-03-21T06:22:35;101131.97;;;8.72;100.00
60307;BME280;46155;52.364;6.580;2023-03-21T06:25:02;101126.13;;;8.76;100.00
60307;BME280;46155;52.364;6.580;2023-03-21T06:27:27;101136.38;;;8.73;100.00
60307;BME280;46155;52.364;6.580;2023-03-21T06:29:53;101131.16;;;8.73;100.00
60307;BME280;46155;52.364;6.580;2023-03-21T06:32:18;101132.97;;;8.74;100.00
60307;BME280;46155;52.364;6.580;2023-03-21T06:34:43;101130.38;;;8.74;100.00
60307;BME280;46155;52.364;6.580;2023-03-21T06:37:09;101130.38;;;8.74;100.00
60307;BME280;46155;52.364;6.580;2023-03-21T06:39:34;101128.44;;;8.71;100.00
60307;BME280;46155;52.364;6.580;2023-03-21T06:42:00;101128.66;;;8.74;100.00
60307;BME280;46155;52.364;6.580;2023-03-21T06:44:26;101132.31;;;8.76;100.00
60307;BME280;46155;52.364;6.580;2023-03-21T06:46:52;101132.09;;;8.73;100.00
60307;BME280;46155;52.364;6.580;2023-03-21T06:49:17;101127.75;;;8.74;100.00
60307;BME280;46155;52.364;6.580;2023-03-21T06:51:43;101122.50;;;8.74;100.00
60307;BME280;46155;52.364;6.580;2023-03-21T06:54:09;101123.31;;;8.73;100.00
60307;BME280;46155;52.364;6.580;2023-03-21T06:56:35;101125.91;;;8.73;100.00
60307;BME280;46155;52.364;6.580;2023-03-21T06:59:01;101129.56;;;8.75;100.00
60307;BME280;46155;52.364;6.580;2023-03-21T07:01:26;101128.66;;;8.74;100.00
60307;BME280;46155;52.364;6.580;2023-03-21T07:03:55;101125.91;;;8.96;100.00
60307;BME280;46155;52.364;6.580;2023-03-21T07:06:23;101128.94;;;9.15;100.00
60307;BME280;46155;52.364;6.580;2023-03-21T07:08:51;101130.97;;;9.07;100.00
60307;BME280;46155;52.364;6.580;2023-03-21T07:11:17;101128.63;;;8.98;100.00
60307;BME280;46155;52.364;6.580;2023-03-21T07:13:42;101120.78;;;8.86;100.00
60307;BME280;46155;52.364;6.580;2023-03-21T07:16:08;101128.88;;;8.89;100.00
60307;BME280;46155;52.364;6.580;2023-03-21T07:18:33;101131.50;;;8.89;100.00
60307;BME280;46155;52.364;6.580;2023-03-21T07:20:59;101122.28;;;8.83;100.00
60307;BME280;46155;52.364;6.580;2023-03-21T07:23:25;101126.81;;;8.85;100.00
60307;BME280;46155;52.364;6.580;2023-03-21T07:25:52;101129.34;;;8.84;100.00
60307;BME280;46155;52.364;6.580;2023-03-21T07:28:18;101134.69;;;8.85;100.00
60307;BME280;46155;52.364;6.580;2023-03-21T07:30:44;101132.97;;;8.86;100.00
60307;BME280;46155;52.364;6.580;2023-03-21T07:33:15;101122.94;;;8.80;100.00
60307;BME280;46155;52.364;6.580;2023-03-21T07:35:40;101125.22;;;8.87;100.00
60307;BME280;46155;52.364;6.580;2023-03-21T07:38:05;101129.09;;;8.92;100.00
60307;BME280;46155;52.364;6.580;2023-03-21T07:40:31;101122.28;;;8.94;100.00
60307;BME280;46155;52.364;6.580;2023-03-21T07:42:57;101128.06;;;8.90;100.00
60307;BME280;46155;52.364;6.580;2023-03-21T07:45:22;101135.22;;;8.93;100.00
60307;BME280;46155;52.364;6.580;2023-03-21T07:47:49;101134.22;;;8.91;100.00
60307;BME280;46155;52.364;6.580;2023-03-21T07:50:15;101126.56;;;8.94;100.00
60307;BME280;46155;52.364;6.580;2023-03-21T07:52:41;101127.72;;;8.98;100.00
60307;BME280;46155;52.364;6.580;2023-03-21T07:55:07;101129.53;;;8.99;100.00
60307;BME280;46155;52.364;6.580;2023-03-21T07:57:32;101121.91;;;9.02;100.00
60307;BME280;46155;52.364;6.580;2023-03-21T07:59:58;101118.34;;;9.01;100.00
60307;BME280;46155;52.364;6.580;2023-03-21T08:02:23;101131.66;;;9.04;100.00
60307;BME280;46155;52.364;6.580;2023-03-21T08:04:48;101129.19;;;9.06;100.00
60307;BME280;46155;52.364;6.580;2023-03-21T08:07:14;101131.09;;;9.08;100.00
60307;BME280;46155;52.364;6.580;2023-03-21T08:09:39;101128.59;;;9.10;100.00
60307;BME280;46155;52.364;6.580;2023-03-21T08:12:05;101130.88;;;9.17;100.00
60307;BME280;46155;52.364;6.580;2023-03-21T08:14:32;101131.09;;;9.20;100.00
60307;BME280;46155;52.364;6.580;2023-03-21T08:16:58;101126.75;;;9.21;100.00
60307;BME280;46155;52.364;6.580;2023-03-21T08:19:23;101128.78;;;9.25;100.00
60307;BME280;46155;52.364;6.580;2023-03-21T08:21:49;101121.72;;;9.24;100.00
60307;BME280;46155;52.364;6.580;2023-03-21T08:24:15;101128.19;;;9.29;100.00
60307;BME280;46155;52.364;6.580;2023-03-21T08:26:41;101126.59;;;9.31;100.00
60307;BME280;46155;52.364;6.580;2023-03-21T08:29:07;101118.84;;;9.33;100.00
60307;BME280;46155;52.364;6.580;2023-03-21T08:31:33;101114.63;;;9.35;100.00
60307;BME280;46155;52.364;6.580;2023-03-21T08:33:58;101120.09;;;9.38;100.00
60307;BME280;46155;52.364;6.580;2023-03-21T08:36:24;101115.53;;;9.35;100.00
60307;BME280;46155;52.364;6.580;2023-03-21T08:38:49;101116.09;;;9.43;100.00
60307;BME280;46155;52.364;6.580;2023-03-21T08:41:19;101125.25;;;9.50;100.00
60307;BME280;46155;52.364;6.580;2023-03-21T08:43:47;101117.75;;;9.54;100.00
60307;BME280;46155;52.364;6.580;2023-03-21T08:46:12;101123.19;;;9.57;100.00
60307;BME280;46155;52.364;6.580;2023-03-21T08:48:37;101115.34;;;9.57;100.00
60307;BME280;46155;52.364;6.580;2023-03-21T08:51:04;101108.94;;;9.54;100.00
60307;BME280;46155;52.364;6.580;2023-03-21T08:53:30;101122.81;;;9.64;100.00
60307;BME280;46155;52.364;6.580;2023-03-21T08:55:55;101123.50;;;9.62;100.00
60307;BME280;46155;52.364;6.580;2023-03-21T08:58:20;101121.56;;;9.59;100.00
60307;BME280;46155;52.364;6.580;2023-03-21T09:00:46;101124.41;;;9.62;100.00
60307;BME280;46155;52.364;6.580;2023-03-21T09:03:11;101122.41;;;9.58;100.00
60307;BME280;46155;52.364;6.580;2023-03-21T09:05:36;101125.03;;;9.58;100.00
60307;BME280;46155;52.364;6.580;2023-03-21T09:08:02;101120.47;;;9.56;100.00
60307;BME280;46155;52.364;6.580;2023-03-21T09:10:30;101123.19;;;9.57;100.00
60307;BME280;46155;52.364;6.580;2023-03-21T09:12:55;101116.13;;;9.56;100.00
60307;BME280;46155;52.364;6.580;2023-03-21T09:15:26;101103.81;;;9.55;100.00
60307;BME280;46155;52.364;6.580;2023-03-21T09:17:53;101106.44;;;9.55;100.00
60307;BME280;46155;52.364;6.580;2023-03-21T09:20:22;101102.22;;;9.57;100.00
60307;BME280;46155;52.364;6.580;2023-03-21T09:22:55;101102.22;;;9.57;100.00
60307;BME280;46155;52.364;6.580;2023-03-21T09:25:21;101102.44;;;9.60;100.00
60307;BME280;46155;52.364;6.580;2023-03-21T09:27:48;101098.34;;;9.64;100.00
60307;BME280;46155;52.364;6.580;2023-03-21T09:30:19;101094.97;;;9.67;100.00
60307;BME280;46155;52.364;6.580;2023-03-21T09:32:45;101087.34;;;9.70;100.00
60307;BME280;46155;52.364;6.580;2023-03-21T09:35:13;101094.19;;;9.68;100.00
60307;BME280;46155;52.364;6.580;2023-03-21T09:37:40;101087.84;;;9.64;100.00
60307;BME280;46155;52.364;6.580;2023-03-21T09:42:50;101100.56;;;9.71;100.00
60307;BME280;46155;52.364;6.580;2023-03-21T09:51:25;101094.41;;;9.71;100.00
60307;BME280;46155;52.364;6.580;2023-03-21T09:53:54;101098.94;;;9.73;100.00
60307;BME280;46155;52.364;6.580;2023-03-21T09:56:21;101090.09;;;9.71;100.00
60307;BME280;46155;52.364;6.580;2023-03-21T09:58:48;101091.78;;;9.71;100.00
60307;BME280;46155;52.364;6.580;2023-03-21T10:01:24;101090.78;;;9.69;100.00
60307;BME280;46155;52.364;6.580;2023-03-21T10:04:01;101085.53;;;9.69;100.00
60307;BME280;46155;52.364;6.580;2023-03-21T10:06:29;101065.25;;;9.66;100.00
60307;BME280;46155;52.364;6.580;2023-03-21T10:09:01;101075.44;;;9.75;100.00
60307;BME280;46155;52.364;6.580;2023-03-21T10:14:22;101065.06;;;9.76;100.00
60307;BME280;46155;52.364;6.580;2023-03-21T10:16:56;101067.19;;;9.82;100.00
60307;BME280;46155;52.364;6.580;2023-03-21T10:19:22;101067.41;;;9.85;100.00
60307;BME280;46155;52.364;6.580;2023-03-21T10:21:49;101057.63;;;9.82;100.00
60307;BME280;46155;52.364;6.580;2023-03-21T10:24:19;101058.53;;;9.83;100.00
60307;BME280;46155;52.364;6.580;2023-03-21T10:26:47;101052.78;;;9.89;100.00
60307;BME280;46155;52.364;6.580;2023-03-21T10:29:14;101049.19;;;9.87;100.00
60307;BME280;46155;52.364;6.580;2023-03-21T10:31:41;101050.28;;;9.90;100.00
60307;BME280;46155;52.364;6.580;2023-03-21T10:34:18;101052.50;;;9.97;100.00
60307;BME280;46155;52.364;6.580;2023-03-21T10:36:45;101044.03;;;10.02;100.00
60307;BME280;46155;52.364;6.580;2023-03-21T10:41:48;101030.53;;;9.95;100.00
60307;BME280;46155;52.364;6.580;2023-03-21T10:44:16;101038.78;;;10.02;100.00
60307;BME280;46155;52.364;6.580;2023-03-21T10:49:17;101022.16;;;10.01;100.00
60307;BME280;46155;52.364;6.580;2023-03-21T10:51:46;101012.56;;;10.02;100.00
60307;BME280;46155;52.364;6.580;2023-03-21T10:54:13;101010.72;;;10.00;100.00
60307;BME280;46155;52.364;6.580;2023-03-21T10:56:59;100997.63;;;10.00;100.00
60307;BME280;46155;52.364;6.580;2023-03-21T10:59:34;100997.22;;;10.08;100.00
60307;BME280;46155;52.364;6.580;2023-03-21T11:02:01;100986.72;;;10.08;100.00
60307;BME280;46155;52.364;6.580;2023-03-21T11:04:28;100993.78;;;10.09;100.00
60307;BME280;46155;52.364;6.580;2023-03-21T11:06:56;100993.88;;;10.10;100.00
60307;BME280;46155;52.364;6.580;2023-03-21T11:09:25;100998.75;;;10.04;100.00
60307;BME280;46155;52.364;6.580;2023-03-21T11:12:02;100994.50;;;10.06;100.00
60307;BME280;46155;52.364;6.580;2023-03-21T11:14:36;100995.63;;;10.10;100.00
60307;BME280;46155;52.364;6.580;2023-03-21T11:17:18;100994.81;;;10.11;100.00
60307;BME280;46155;52.364;6.580;2023-03-21T11:19:48;100998.34;;;10.11;100.00
60307;BME280;46155;52.364;6.580;2023-03-21T11:22:14;100999.03;;;10.09;100.00
60307;BME280;46155;52.364;6.580;2023-03-21T11:24:43;100998.16;;;10.08;100.00
60307;BME280;46155;52.364;6.580;2023-03-21T11:27:12;100995.63;;;10.10;100.00
60307;BME280;46155;52.364;6.580;2023-03-21T11:29:39;100993.56;;;10.19;100.00
60307;BME280;46155;52.364;6.580;2023-03-21T11:35:06;100981.06;;;10.28;100.00
60307;BME280;46155;52.364;6.580;2023-03-21T11:37:40;100978.06;;;10.36;100.00
60307;BME280;46155;52.364;6.580;2023-03-21T11:40:26;100970.47;;;10.40;100.00
60307;BME280;46155;52.364;6.580;2023-03-21T11:43:01;100958.47;;;10.44;100.00
60307;BME280;46155;52.364;6.580;2023-03-21T11:45:32;100968.38;;;10.48;100.00
60307;BME280;46155;52.364;6.580;2023-03-21T11:47:59;100961.66;;;10.53;100.00
60307;BME280;46155;52.364;6.580;2023-03-21T11:50:37;100962.97;;;10.60;100.00
60307;BME280;46155;52.364;6.580;2023-03-21T11:58:59;100960.59;;;10.78;100.00
60307;BME280;46155;52.364;6.580;2023-03-21T12:04:06;100958.75;;;10.90;100.00
60307;BME280;46155;52.364;6.580;2023-03-21T12:06:57;100955.41;;;11.08;100.00
60307;BME280;46155;52.364;6.580;2023-03-21T12:12:13;100951.19;;;11.25;100.00
60307;BME280;46155;52.364;6.580;2023-03-21T12:14:54;100939.78;;;11.24;100.00
60307;BME280;46155;52.364;6.580;2023-03-21T12:23:11;100950.09;;;11.21;100.00
60307;BME280;46155;52.364;6.580;2023-03-21T12:25:48;100949.91;;;11.18;100.00
60307;BME280;46155;52.364;6.580;2023-03-21T12:31:24;100937.38;;;11.14;100.00
60307;BME280;46155;52.364;6.580;2023-03-21T12:37:08;100923.28;;;11.12;100.00
60307;BME280;46155;52.364;6.580;2023-03-21T12:39:40;100912.66;;;11.25;100.00
60307;BME280;46155;52.364;6.580;2023-03-21T12:45:14;100911.75;;;11.40;100.00
60307;BME280;46155;52.364;6.580;2023-03-21T12:47:42;100902.25;;;11.42;100.00
60307;BME280;46155;52.364;6.580;2023-03-21T12:50:28;100907.78;;;11.31;100.00
60307;BME280;46155;52.364;6.580;2023-03-21T12:53:13;100908.41;;;11.42;100.00
60307;BME280;46155;52.364;6.580;2023-03-21T12:55:41;100891.41;;;11.35;100.00
60307;BME280;46155;52.364;6.580;2023-03-21T12:58:19;100903.16;;;11.42;100.00
60307;BME280;46155;52.364;6.580;2023-03-21T13:00:50;100900.16;;;11.51;100.00
60307;BME280;46155;52.364;6.580;2023-03-21T13:03:22;100897.72;;;11.54;100.00
60307;BME280;46155;52.364;6.580;2023-03-21T13:05:55;100898.53;;;11.53;100.00
60307;BME280;46155;52.364;6.580;2023-03-21T13:11:07;100894.63;;;11.61;100.00
60307;BME280;46155;52.364;6.580;2023-03-21T13:16:17;100892.47;;;11.54;100.00
60307;BME280;46155;52.364;6.580;2023-03-21T13:21:42;100886.13;;;11.50;100.00
60307;BME280;46155;52.364;6.580;2023-03-21T13:24:31;100885.03;;;11.47;100.00
60307;BME280;46155;52.364;6.580;2023-03-21T13:27:06;100887.75;;;11.48;100.00
60307;BME280;46155;52.364;6.580;2023-03-21T13:29:42;100881.56;;;11.48;100.00
60307;BME280;46155;52.364;6.580;2023-03-21T13:32:17;100871.44;;;11.54;100.00
60307;BME280;46155;52.364;6.580;2023-03-21T13:34:53;100869.97;;;11.59;100.00
60307;BME280;46155;52.364;6.580;2023-03-21T13:37:19;100875.75;;;11.68;100.00
60307;BME280;46155;52.364;6.580;2023-03-21T13:39:46;100873.63;;;11.78;100.00
60307;BME280;46155;52.364;6.580;2023-03-21T13:42:22;100866.84;;;11.81;100.00
60307;BME280;46155;52.364;6.580;2023-03-21T13:44:52;100870.38;;;11.82;100.00
60307;BME280;46155;52.364;6.580;2023-03-21T13:52:41;100867.56;;;11.79;100.00
60307;BME280;46155;52.364;6.580;2023-03-21T13:55:30;100854.25;;;11.76;100.00
60307;BME280;46155;52.364;6.580;2023-03-21T13:58:33;100867.72;;;11.82;100.00
60307;BME280;46155;52.364;6.580;2023-03-21T14:04:20;100844.50;;;11.89;100.00
60307;BME280;46155;52.364;6.580;2023-03-21T14:06:56;100850.56;;;12.03;100.00
60307;BME280;46155;52.364;6.580;2023-03-21T14:11:57;100840.22;;;12.07;100.00
60307;BME280;46155;52.364;6.580;2023-03-21T14:14:29;100830.84;;;12.12;100.00
60307;BME280;46155;52.364;6.580;2023-03-21T14:16:57;100833.91;;;12.19;100.00
60307;BME280;46155;52.364;6.580;2023-03-21T14:19:28;100827.41;;;12.29;100.00
60307;BME280;46155;52.364;6.580;2023-03-21T14:21:55;100816.41;;;12.36;100.00
60307;BME280;46155;52.364;6.580;2023-03-21T14:24:20;100817.88;;;12.48;100.00
60307;BME280;46155;52.364;6.580;2023-03-21T14:26:48;100811.75;;;12.49;100.00
60307;BME280;46155;52.364;6.580;2023-03-21T14:29:22;100813.72;;;12.53;99.08
60307;BME280;46155;52.364;6.580;2023-03-21T14:31:48;100817.19;;;12.68;99.32
60307;BME280;46155;52.364;6.580;2023-03-21T14:34:15;100814.69;;;12.71;99.94
60307;BME280;46155;52.364;6.580;2023-03-21T14:36:41;100807.16;;;12.61;97.92
60307;BME280;46155;52.364;6.580;2023-03-21T14:41:47;100798.44;;;12.62;100.00
60307;BME280;46155;52.364;6.580;2023-03-21T14:44:25;100796.03;;;12.67;99.13
60307;BME280;46155;52.364;6.580;2023-03-21T14:46:59;100782.63;;;12.62;97.62
60307;BME280;46155;52.364;6.580;2023-03-21T14:49:30;100785.66;;;12.70;97.38
60307;BME280;46155;52.364;6.580;2023-03-21T14:52:01;100791.56;;;12.66;95.27
60307;BME280;46155;52.364;6.580;2023-03-21T14:54:28;100778.34;;;12.64;94.22
60307;BME280;46155;52.364;6.580;2023-03-21T14:57:04;100786.31;;;12.66;96.28
60307;BME280;46155;52.364;6.580;2023-03-21T14:59:36;100782.03;;;12.68;94.97
60307;BME280;46155;52.364;6.580;2023-03-21T15:02:05;100777.59;;;12.67;95.39
60307;BME280;46155;52.364;6.580;2023-03-21T15:04:37;100778.00;;;12.74;95.94
60307;BME280;46155;52.364;6.580;2023-03-21T15:07:02;100778.31;;;12.81;96.05
60307;BME280;46155;52.364;6.580;2023-03-21T15:09:31;100777.66;;;12.85;95.57
60307;BME280;46155;52.364;6.580;2023-03-21T15:11:58;100771.25;;;12.98;95.03
60307;BME280;46155;52.364;6.580;2023-03-21T15:14:31;100760.34;;;12.90;92.78
60307;BME280;46155;52.364;6.580;2023-03-21T15:16:59;100765.50;;;12.88;91.83
60307;BME280;46155;52.364;6.580;2023-03-21T15:19:31;100759.94;;;12.82;91.25
60307;BME280;46155;52.364;6.580;2023-03-21T15:22:03;100752.94;;;12.83;92.64
60307;BME280;46155;52.364;6.580;2023-03-21T15:24:35;100759.94;;;12.82;92.56
60307;BME280;46155;52.364;6.580;2023-03-21T15:27:11;100761.69;;;12.82;92.56
60307;BME280;46155;52.364;6.580;2023-03-21T15:29:37;100768.75;;;12.83;92.02
60307;BME280;46155;52.364;6.580;2023-03-21T15:32:06;100765.28;;;12.84;91.91
60307;BME280;46155;52.364;6.580;2023-03-21T15:34:36;100764.47;;;12.85;91.70
60307;BME280;46155;52.364;6.580;2023-03-21T15:37:13;100770.09;;;12.74;92.14
60307;BME280;46155;52.364;6.580;2023-03-21T15:39:40;100767.97;;;12.67;90.19
60307;BME280;46155;52.364;6.580;2023-03-21T15:44:55;100768.66;;;12.63;91.89
60307;BME280;46155;52.364;6.580;2023-03-21T15:47:40;100766.16;;;12.66;91.13
60307;BME280;46155;52.364;6.580;2023-03-21T15:50:10;100771.44;;;12.66;91.10
60307;BME280;46155;52.364;6.580;2023-03-21T15:52:41;100763.38;;;12.63;91.93
60307;BME280;46155;52.364;6.580;2023-03-21T15:55:18;100772.56;;;12.71;92.18
60307;BME280;46155;52.364;6.580;2023-03-21T15:57:47;100757.75;;;12.73;92.05
60307;BME280;46155;52.364;6.580;2023-03-21T16:00:21;100763.97;;;12.75;92.59
60307;BME280;46155;52.364;6.580;2023-03-21T16:02:53;100760.16;;;12.69;90.35
60307;BME280;46155;52.364;6.580;2023-03-21T16:05:30;100759.00;;;12.64;90.38
60307;BME280;46155;52.364;6.580;2023-03-21T16:08:20;100765.34;;;12.67;90.88
60307;BME280;46155;52.364;6.580;2023-03-21T16:10:46;100765.00;;;12.61;89.97
60307;BME280;46155;52.364;6.580;2023-03-21T16:13:13;100755.88;;;12.54;90.75
60307;BME280;46155;52.364;6.580;2023-03-21T16:15:38;100758.34;;;12.51;89.58
60307;BME280;46155;52.364;6.580;2023-03-21T16:18:05;100769.16;;;12.56;89.45
60307;BME280;46155;52.364;6.580;2023-03-21T16:20:38;100764.56;;;12.52;90.54
60307;BME280;46155;52.364;6.580;2023-03-21T16:23:04;100774.00;;;12.48;91.32
60307;BME280;46155;52.364;6.580;2023-03-21T16:25:30;100771.13;;;12.44;91.45
60307;BME280;46155;52.364;6.580;2023-03-21T16:27:56;100758.47;;;12.36;92.28
60307;BME280;46155;52.364;6.580;2023-03-21T16:30:22;100768.28;;;12.39;91.29
60307;BME280;46155;52.364;6.580;2023-03-21T16:32:47;100764.06;;;12.43;92.50
60307;BME280;46155;52.364;6.580;2023-03-21T16:35:15;100777.06;;;12.39;92.65
60307;BME280;46155;52.364;6.580;2023-03-21T16:37:41;100774.94;;;12.32;93.15
60307;BME280;46155;52.364;6.580;2023-03-21T16:40:19;100781.59;;;12.26;93.29
60307;BME280;46155;52.364;6.580;2023-03-21T16:42:46;100783.31;;;12.25;93.90
60307;BME280;46155;52.364;6.580;2023-03-21T16:45:11;100787.59;;;12.23;94.37
60307;BME280;46155;52.364;6.580;2023-03-21T16:47:36;100787.44;;;12.20;94.53
60307;BME280;46155;52.364;6.580;2023-03-21T16:50:12;100784.72;;;12.18;94.13
60307;BME280;46155;52.364;6.580;2023-03-21T16:52:43;100782.31;;;12.23;94.44
60307;BME280;46155;52.364;6.580;2023-03-21T16:55:09;100782.16;;;12.20;94.97
60307;BME280;46155;52.364;6.580;2023-03-21T16:57:34;100775.28;;;12.22;95.35
60307;BME280;46155;52.364;6.580;2023-03-21T17:00:00;100775.00;;;12.17;96.05
60307;BME280;46155;52.364;6.580;2023-03-21T17:02:25;100777.72;;;12.19;95.13
60307;BME280;46155;52.364;6.580;2023-03-21T17:04:51;100788.44;;;12.22;94.30
60307;BME280;46155;52.364;6.580;2023-03-21T17:07:17;100774.19;;;12.18;94.19
60307;BME280;46155;52.364;6.580;2023-03-21T17:09:42;100772.22;;;12.14;93.87
60307;BME280;46155;52.364;6.580;2023-03-21T17:12:14;100785.81;;;12.22;94.34
60307;BME280;46155;52.364;6.580;2023-03-21T17:14:41;100786.84;;;12.26;93.57
60307;BME280;46155;52.364;6.580;2023-03-21T17:17:15;100774.56;;;12.26;92.81
60307;BME280;46155;52.364;6.580;2023-03-21T17:19:40;100773.44;;;12.21;94.02
60307;BME280;46155;52.364;6.580;2023-03-21T17:22:06;100774.91;;;12.16;93.96
60307;BME280;46155;52.364;6.580;2023-03-21T17:24:32;100776.72;;;12.17;94.34
60307;BME280;46155;52.364;6.580;2023-03-21T17:26:59;100774.75;;;12.13;94.46
60307;BME280;46155;52.364;6.580;2023-03-21T17:29:25;100778.13;;;12.10;94.28
60307;BME280;46155;52.364;6.580;2023-03-21T17:31:52;100777.16;;;12.08;94.26
60307;BME280;46155;52.364;6.580;2023-03-21T17:34:17;100767.78;;;11.97;94.66
60307;BME280;46155;52.364;6.580;2023-03-21T17:36:45;100777.06;;;12.07;94.81
60307;BME280;46155;52.364;6.580;2023-03-21T17:39:18;100780.50;;;12.05;95.67
60307;BME280;46155;52.364;6.580;2023-03-21T17:41:44;100781.25;;;12.03;95.33
60307;BME280;46155;52.364;6.580;2023-03-21T17:44:09;100779.50;;;12.03;95.16
60307;BME280;46155;52.364;6.580;2023-03-21T17:46:35;100793.50;;;12.02;95.02
60307;BME280;46155;52.364;6.580;2023-03-21T17:49:02;100789.13;;;12.03;95.30
60307;BME280;46155;52.364;6.580;2023-03-21T17:51:28;100781.97;;;12.00;95.39
60307;BME280;46155;52.364;6.580;2023-03-21T17:53:54;100782.81;;;11.99;95.61
60307;BME280;46155;52.364;6.580;2023-03-21T17:56:26;100781.91;;;11.99;96.34
60307;BME280;46155;52.364;6.580;2023-03-21T17:58:54;100787.97;;;11.98;96.19
60307;BME280;46155;52.364;6.580;2023-03-21T18:01:20;100788.81;;;11.97;97.25
60307;BME280;46155;52.364;6.580;2023-03-21T18:03:47;100792.97;;;11.93;97.63
60307;BME280;46155;52.364;6.580;2023-03-21T18:06:17;100805.34;;;11.94;97.45